createdAt,value
2018-09-18T00:00:46.944Z,9.37
2018-09-18T00:03:15.490Z,9.40
2018-09-18T00:05:44.038Z,10.13
2018-09-18T00:08:12.555Z,9.83
2018-09-18T00:10:41.126Z,9.43
2018-09-18T00:13:09.671Z,9.93
2018-09-18T00:15:38.183Z,9.70
2018-09-18T00:18:06.720Z,9.30
2018-09-18T00:20:35.283Z,10.13
2018-09-18T00:23:03.856Z,9.60
2018-09-18T00:25:32.458Z,9.97
2018-09-18T00:28:00.997Z,9.33
2018-09-18T00:30:29.540Z,10.30
2018-09-18T00:32:58.120Z,9.63
2018-09-18T00:35:26.699Z,9.40
2018-09-18T00:37:55.266Z,9.37
2018-09-18T00:40:23.810Z,9.13
2018-09-18T00:42:52.356Z,9.70
2018-09-18T00:45:20.859Z,9.57
2018-09-18T00:47:49.435Z,10.10
2018-09-18T00:50:17.945Z,9.90
2018-09-18T00:52:46.459Z,9.40
2018-09-18T00:55:14.963Z,9.60
2018-09-18T00:57:43.505Z,9.47
2018-09-18T01:00:12.019Z,9.43
2018-09-18T01:02:40.694Z,9.90
2018-09-18T01:05:09.246Z,8.90
2018-09-18T01:07:37.900Z,8.93
2018-09-18T01:10:06.511Z,9.00
2018-09-18T01:12:35.047Z,8.20
2018-09-18T01:15:03.668Z,8.57
2018-09-18T01:17:32.170Z,8.90
2018-09-18T01:20:01.527Z,8.63
2018-09-18T01:22:30.138Z,8.97
2018-09-18T01:25:16.738Z,8.93
2018-09-18T01:27:45.245Z,9.23
2018-09-18T01:30:13.772Z,9.03
2018-09-18T01:32:42.302Z,9.67
2018-09-18T01:35:11.883Z,9.13
2018-09-18T01:37:40.387Z,9.17
2018-09-18T01:40:08.956Z,9.83
2018-09-18T01:42:37.610Z,9.77
2018-09-18T01:45:06.412Z,9.43
2018-09-18T01:47:35.011Z,9.50
2018-09-18T01:50:03.576Z,9.80
2018-09-18T01:52:32.107Z,9.63
2018-09-18T01:55:00.612Z,9.53
2018-09-18T01:57:29.206Z,9.77
2018-09-18T01:59:57.730Z,9.70
2018-09-18T02:02:26.281Z,10.00
2018-09-18T02:04:54.828Z,9.30
2018-09-18T02:07:23.468Z,10.20
2018-09-18T02:09:52.113Z,10.00
2018-09-18T02:12:20.634Z,10.40
2018-09-18T02:14:49.189Z,10.87
2018-09-18T02:17:17.701Z,10.40
2018-09-18T02:19:45.233Z,9.77
2018-09-18T02:22:12.736Z,8.77
2018-09-18T02:24:41.251Z,9.23
2018-09-18T02:27:09.795Z,9.30
2018-09-18T02:29:38.336Z,8.87
2018-09-18T02:32:07.117Z,9.27
2018-09-18T02:34:35.761Z,11.70
2018-09-18T02:37:04.303Z,9.47
2018-09-18T02:39:32.883Z,8.93
2018-09-18T02:42:01.486Z,8.93
2018-09-18T02:44:30.006Z,8.43
2018-09-18T02:46:58.591Z,8.30
2018-09-18T02:49:27.138Z,8.57
2018-09-18T02:51:55.719Z,8.23
2018-09-18T02:54:24.251Z,8.20
2018-09-18T02:56:52.738Z,9.37
2018-09-18T02:59:22.119Z,8.77
2018-09-18T03:01:50.635Z,9.07
2018-09-18T03:04:19.210Z,8.57
2018-09-18T03:06:47.759Z,8.50
2018-09-18T03:09:16.342Z,9.53
2018-09-18T03:11:44.946Z,9.57
2018-09-18T03:14:13.526Z,8.47
2018-09-18T03:16:42.111Z,9.37
2018-09-18T03:19:10.617Z,8.93
2018-09-18T03:21:39.203Z,8.97
2018-09-18T03:24:07.765Z,9.13
2018-09-18T03:26:36.320Z,8.40
2018-09-18T03:29:04.885Z,9.30
2018-09-18T03:31:33.452Z,9.40
2018-09-18T03:34:02.008Z,8.40
2018-09-18T03:36:30.708Z,8.60
2018-09-18T03:38:59.322Z,10.47
2018-09-18T03:41:27.818Z,9.80
2018-09-18T03:43:56.378Z,10.57
2018-09-18T03:46:24.915Z,10.33
2018-09-18T03:48:53.456Z,11.47
2018-09-18T03:51:22.006Z,12.13
2018-09-18T03:53:50.531Z,10.73
2018-09-18T03:56:19.025Z,11.00
2018-09-18T03:58:47.565Z,10.93
2018-09-18T04:01:16.126Z,10.30
2018-09-18T04:03:44.711Z,10.30
2018-09-18T04:06:13.221Z,10.13
2018-09-18T04:08:41.741Z,11.07
2018-09-18T04:11:10.346Z,10.87
2018-09-18T04:13:38.852Z,10.00
2018-09-18T04:16:07.369Z,10.17
2018-09-18T04:18:35.946Z,10.17
2018-09-18T04:21:04.498Z,9.87
2018-09-18T04:23:33.088Z,10.40
2018-09-18T04:26:01.622Z,10.13
2018-09-18T04:28:30.170Z,10.10
2018-09-18T04:30:58.788Z,10.27
2018-09-18T04:33:27.320Z,9.73
2018-09-18T04:35:55.869Z,9.30
2018-09-18T04:38:24.395Z,9.13
2018-09-18T04:40:52.986Z,9.70
2018-09-18T04:43:21.564Z,10.17
2018-09-18T04:45:50.161Z,10.00
2018-09-18T04:48:18.762Z,10.30
2018-09-18T04:50:47.381Z,9.67
2018-09-18T04:53:15.990Z,9.87
2018-09-18T04:55:44.650Z,9.87
2018-09-18T04:58:13.187Z,10.10
2018-09-18T05:00:41.770Z,10.23
2018-09-18T05:03:10.322Z,10.20
2018-09-18T05:05:38.857Z,9.93
2018-09-18T05:08:07.404Z,10.23
2018-09-18T05:10:35.964Z,10.13
2018-09-18T05:13:04.527Z,10.00
2018-09-18T05:15:33.178Z,9.23
2018-09-18T05:18:01.689Z,9.63
2018-09-18T05:20:30.280Z,10.13
2018-09-18T05:22:58.815Z,9.60
2018-09-18T05:25:27.356Z,10.50
2018-09-18T05:27:55.847Z,10.63
2018-09-18T05:30:24.467Z,10.40
2018-09-18T05:32:53.011Z,11.00
2018-09-18T05:35:21.589Z,11.23
2018-09-18T05:37:50.153Z,11.40
2018-09-18T05:40:18.651Z,11.70
2018-09-18T05:42:47.183Z,11.10
2018-09-18T05:45:15.783Z,10.93
2018-09-18T05:47:44.329Z,11.03
2018-09-18T05:50:12.833Z,10.57
2018-09-18T05:52:41.390Z,10.57
2018-09-18T05:55:09.949Z,11.00
2018-09-18T05:57:38.481Z,11.80
2018-09-18T06:00:06.971Z,10.87
2018-09-18T06:02:35.457Z,10.83
2018-09-18T06:05:04.148Z,11.13
2018-09-18T06:07:32.638Z,10.33
2018-09-18T06:10:01.262Z,10.53
2018-09-18T06:12:29.904Z,11.67
2018-09-18T06:14:58.405Z,10.40
2018-09-18T06:17:26.974Z,11.20
2018-09-18T06:19:55.566Z,10.30
2018-09-18T06:22:24.130Z,11.20
2018-09-18T06:24:52.655Z,11.80
2018-09-18T06:27:21.244Z,12.03
2018-09-18T06:29:49.744Z,12.27
2018-09-18T06:32:18.331Z,12.10
2018-09-18T06:34:46.923Z,12.93
2018-09-18T06:37:15.509Z,13.17
2018-09-18T06:39:44.059Z,12.73
2018-09-18T06:42:12.684Z,12.77
2018-09-18T06:44:41.224Z,13.10
2018-09-18T06:47:09.720Z,13.23
2018-09-18T06:49:38.207Z,13.40
2018-09-18T06:52:06.717Z,14.50
2018-09-18T06:54:35.315Z,15.53
2018-09-18T06:57:03.765Z,16.53
2018-09-18T06:59:32.253Z,19.50
2018-09-18T07:02:00.747Z,21.07
2018-09-18T07:04:29.266Z,22.03
2018-09-18T07:06:57.753Z,22.30
2018-09-18T07:09:26.254Z,21.70
2018-09-18T07:11:54.750Z,21.73
2018-09-18T07:14:23.291Z,22.07
2018-09-18T07:16:51.838Z,20.27
2018-09-18T07:19:20.421Z,21.43
2018-09-18T07:21:48.914Z,21.60
2018-09-18T07:24:17.418Z,20.93
2018-09-18T07:26:46.219Z,19.23
2018-09-18T07:29:14.714Z,19.50
2018-09-18T07:31:43.188Z,19.70
2018-09-18T07:34:11.789Z,18.97
2018-09-18T07:36:40.367Z,21.30
2018-09-18T07:39:10.619Z,21.07
2018-09-18T07:41:39.113Z,21.63
2018-09-18T07:44:07.595Z,21.13
2018-09-18T07:46:36.075Z,20.73
2018-09-18T07:49:05.505Z,21.53
2018-09-18T07:51:34.874Z,22.07
2018-09-18T07:54:04.076Z,22.17
2018-09-18T07:56:33.006Z,22.23
2018-09-18T07:59:02.495Z,20.73
2018-09-18T08:01:31.887Z,21.73
2018-09-18T08:04:00.687Z,21.90
2018-09-18T08:06:29.518Z,21.10
2018-09-18T08:08:58.336Z,19.13
2018-09-18T08:11:26.969Z,21.60
2018-09-18T08:13:55.496Z,19.70
2018-09-18T08:16:24.080Z,20.90
2018-09-18T08:18:52.764Z,20.27
2018-09-18T08:21:21.183Z,20.90
2018-09-18T08:23:49.754Z,22.37
2018-09-18T08:26:18.294Z,18.90
2018-09-18T08:28:47.591Z,18.67
2018-09-18T08:31:16.212Z,19.80
2018-09-18T08:33:44.711Z,18.93
2018-09-18T08:36:13.191Z,19.93
2018-09-18T08:38:41.749Z,17.73
2018-09-18T08:41:10.251Z,19.67
2018-09-18T08:43:38.746Z,19.93
2018-09-18T08:46:07.259Z,18.20
2018-09-18T08:48:35.833Z,20.20
2018-09-18T08:51:04.406Z,18.57
2018-09-18T08:53:32.958Z,21.33
2018-09-18T08:56:01.635Z,20.07
2018-09-18T08:58:30.150Z,16.37
2018-09-18T09:00:58.662Z,16.80
2018-09-18T09:03:27.183Z,18.83
2018-09-18T09:05:55.784Z,16.50
2018-09-18T09:08:24.295Z,18.77
2018-09-18T09:10:52.808Z,17.43
2018-09-18T09:13:21.294Z,18.30
2018-09-18T09:15:49.796Z,19.57
2018-09-18T09:18:18.359Z,17.10
2018-09-18T09:20:46.959Z,18.43
2018-09-18T09:23:15.451Z,16.83
2018-09-18T09:25:44.050Z,18.27
2018-09-18T09:28:12.676Z,18.37
2018-09-18T09:30:41.382Z,17.47
2018-09-18T09:33:09.955Z,17.00
2018-09-18T09:35:38.509Z,16.27
2018-09-18T09:38:07.130Z,15.80
2018-09-18T09:40:35.666Z,16.37
2018-09-18T09:43:04.221Z,16.00
2018-09-18T09:45:32.869Z,16.33
2018-09-18T09:48:01.435Z,15.10
2018-09-18T09:50:30.012Z,16.40
2018-09-18T09:52:58.572Z,15.37
2018-09-18T09:55:27.117Z,15.00
2018-09-18T09:57:55.762Z,15.17
2018-09-18T10:00:29.440Z,14.17
2018-09-18T10:02:58.131Z,14.73
2018-09-18T10:05:26.912Z,15.07
2018-09-18T10:07:55.486Z,14.77
2018-09-18T10:10:24.122Z,15.57
2018-09-18T10:12:52.758Z,14.80
2018-09-18T10:15:21.580Z,14.97
2018-09-18T10:17:50.172Z,13.70
2018-09-18T10:20:19.732Z,14.07
2018-09-18T10:22:48.347Z,14.57
2018-09-18T10:25:16.971Z,13.93
2018-09-18T10:27:45.584Z,14.73
2018-09-18T10:30:14.172Z,14.50
2018-09-18T10:32:43.489Z,14.50
2018-09-18T10:35:12.125Z,14.30
2018-09-18T10:37:40.715Z,14.43
2018-09-18T10:40:09.372Z,14.00
2018-09-18T10:42:37.992Z,15.33
2018-09-18T10:45:07.618Z,14.40
2018-09-18T10:47:36.291Z,14.13
2018-09-18T10:50:05.043Z,14.07
2018-09-18T10:52:33.664Z,14.27
2018-09-18T10:55:02.348Z,14.60
2018-09-18T10:57:31.026Z,14.40
2018-09-18T10:59:59.646Z,13.90
2018-09-18T11:02:29.632Z,14.03
2018-09-18T11:04:58.181Z,13.40
2018-09-18T11:07:26.789Z,14.37
2018-09-18T11:09:55.464Z,14.73
2018-09-18T11:12:24.071Z,14.53
2018-09-18T11:14:52.736Z,14.17
2018-09-18T11:17:21.311Z,14.00
2018-09-18T11:19:49.922Z,14.63
2018-09-18T11:22:18.619Z,14.47
2018-09-18T11:24:47.131Z,14.40
2018-09-18T11:27:15.722Z,14.20
2018-09-18T11:29:44.289Z,13.43
2018-09-18T11:32:12.895Z,14.90
2018-09-18T11:34:41.617Z,13.00
2018-09-18T11:37:10.254Z,14.67
2018-09-18T11:39:39.840Z,13.90
2018-09-18T11:42:08.407Z,14.23
2018-09-18T11:44:36.998Z,14.40
2018-09-18T11:47:05.592Z,13.17
2018-09-18T11:49:34.272Z,13.17
2018-09-18T11:52:02.844Z,14.07
2018-09-18T11:54:31.415Z,13.83
2018-09-18T11:57:00.024Z,13.73
2018-09-18T11:59:28.604Z,13.20
2018-09-18T12:01:57.218Z,13.53
2018-09-18T12:04:25.807Z,12.67
2018-09-18T12:06:54.436Z,13.73
2018-09-18T12:09:22.990Z,13.17
2018-09-18T12:11:51.594Z,13.60
2018-09-18T12:14:20.152Z,13.10
2018-09-18T12:16:48.758Z,13.20
2018-09-18T12:19:17.329Z,12.60
2018-09-18T12:21:45.931Z,12.93
2018-09-18T12:24:15.034Z,12.00
2018-09-18T12:26:43.748Z,12.97
2018-09-18T12:29:12.387Z,12.43
2018-09-18T12:31:40.906Z,13.20
2018-09-18T12:34:09.528Z,12.37
2018-09-18T12:36:38.354Z,12.03
2018-09-18T12:39:08.675Z,12.50
2018-09-18T12:41:37.630Z,12.90
2018-09-18T12:44:06.252Z,12.10
2018-09-18T12:46:35.435Z,11.90
2018-09-18T12:49:03.951Z,12.37
2018-09-18T12:51:32.505Z,12.13
2018-09-18T12:54:01.178Z,12.07
2018-09-18T12:56:29.743Z,11.73
2018-09-18T12:58:58.409Z,10.93
2018-09-18T13:01:26.900Z,11.83
2018-09-18T13:03:56.531Z,11.43
2018-09-18T13:06:25.299Z,11.63
2018-09-18T13:08:53.754Z,11.63
2018-09-18T13:11:22.350Z,11.67
2018-09-18T13:13:50.842Z,12.20
2018-09-18T13:16:19.383Z,11.43
2018-09-18T13:18:47.883Z,11.47
2018-09-18T13:21:16.359Z,11.50
2018-09-18T13:23:44.901Z,11.33
2018-09-18T13:26:13.383Z,10.80
2018-09-18T13:28:41.854Z,10.80
2018-09-18T13:31:10.338Z,11.00
2018-09-18T13:33:38.817Z,11.33
2018-09-18T13:36:07.295Z,10.33
2018-09-18T13:38:35.782Z,11.10
2018-09-18T13:41:04.377Z,11.13
2018-09-18T13:43:32.769Z,10.60
2018-09-18T13:46:01.258Z,10.60
2018-09-18T13:48:29.776Z,10.77
2018-09-18T13:50:58.278Z,11.03
2018-09-18T13:53:26.778Z,11.03
2018-09-18T13:55:55.262Z,11.70
2018-09-18T13:58:23.755Z,10.47
2018-09-18T14:00:52.234Z,10.63
2018-09-18T14:03:20.716Z,11.13
2018-09-18T14:05:49.190Z,10.83
2018-09-18T14:08:17.759Z,11.00
2018-09-18T14:10:46.201Z,10.40
2018-09-18T14:13:14.702Z,11.07
2018-09-18T14:15:43.181Z,10.03
2018-09-18T14:18:11.694Z,10.37
2018-09-18T14:20:40.215Z,10.67
2018-09-18T14:23:08.674Z,10.77
2018-09-18T14:25:37.192Z,10.97
2018-09-18T14:28:05.681Z,10.83
2018-09-18T14:30:34.168Z,10.70
2018-09-18T14:33:02.683Z,10.77
2018-09-18T14:35:31.367Z,11.10
2018-09-18T14:38:00.100Z,9.63
2018-09-18T14:40:28.829Z,9.67
2018-09-18T14:42:57.516Z,10.20
2018-09-18T14:45:26.177Z,10.03
2018-09-18T14:47:54.659Z,10.20
2018-09-18T14:50:23.168Z,10.00
2018-09-18T14:52:51.675Z,10.43
2018-09-18T14:55:20.343Z,10.00
2018-09-18T14:57:48.879Z,10.60
2018-09-18T15:00:17.502Z,10.30
2018-09-18T15:02:46.052Z,10.30
2018-09-18T15:05:14.635Z,9.80
2018-09-18T15:07:43.146Z,9.60
2018-09-18T15:10:11.626Z,9.57
2018-09-18T15:12:40.140Z,9.97
2018-09-18T15:15:08.688Z,9.90
2018-09-18T15:17:37.283Z,9.60
2018-09-18T15:20:05.771Z,8.93
2018-09-18T15:22:34.302Z,9.57
2018-09-18T15:25:02.803Z,10.57
2018-09-18T15:27:31.343Z,9.97
2018-09-18T15:29:59.821Z,9.80
2018-09-18T15:32:28.336Z,10.37
2018-09-18T15:34:56.985Z,10.27
2018-09-18T15:37:25.535Z,9.97
2018-09-18T15:39:54.022Z,9.67
2018-09-18T15:42:22.535Z,10.10
2018-09-18T15:44:51.023Z,10.80
2018-09-18T15:47:19.521Z,9.70
2018-09-18T15:49:48.182Z,9.70
2018-09-18T15:52:16.720Z,9.60
2018-09-18T15:54:45.246Z,9.63
2018-09-18T15:57:13.782Z,10.03
2018-09-18T15:59:42.298Z,9.40
2018-09-18T16:02:11.065Z,9.80
2018-09-18T16:04:39.570Z,9.43
2018-09-18T16:07:08.073Z,9.67
2018-09-18T16:09:36.573Z,9.37
2018-09-18T16:12:05.064Z,9.47
2018-09-18T16:14:33.589Z,8.77
2018-09-18T16:17:02.144Z,8.87
2018-09-18T16:19:30.644Z,9.20
2018-09-18T16:21:59.168Z,9.47
2018-09-18T16:24:27.777Z,9.63
2018-09-18T16:26:56.278Z,8.70
2018-09-18T16:29:25.277Z,9.47
2018-09-18T16:31:53.805Z,8.73
2018-09-18T16:34:22.384Z,8.83
2018-09-18T16:36:51.004Z,8.87
2018-09-18T16:39:19.520Z,9.37
2018-09-18T16:41:47.999Z,9.57
2018-09-18T16:44:16.485Z,8.63
2018-09-18T16:46:45.030Z,8.27
2018-09-18T16:49:13.543Z,9.13
2018-09-18T16:51:42.049Z,9.03
2018-09-18T16:54:10.539Z,8.53
2018-09-18T16:56:39.072Z,8.50
2018-09-18T16:59:07.547Z,8.87
2018-09-18T17:01:36.085Z,9.00
2018-09-18T17:04:04.552Z,8.97
2018-09-18T17:06:33.111Z,9.00
2018-09-18T17:09:01.567Z,9.17
2018-09-18T17:11:30.047Z,8.47
2018-09-18T17:13:58.544Z,8.70
2018-09-18T17:16:27.033Z,9.20
2018-09-18T17:18:55.553Z,8.77
2018-09-18T17:21:24.032Z,8.43
2018-09-18T17:23:52.501Z,8.43
2018-09-18T17:26:21.002Z,8.43
2018-09-18T17:28:49.651Z,8.50
2018-09-18T17:31:18.004Z,8.93
2018-09-18T17:33:46.477Z,8.63
2018-09-18T17:36:14.948Z,9.23
2018-09-18T17:38:43.422Z,8.57
2018-09-18T17:41:11.920Z,8.20
2018-09-18T17:43:40.429Z,8.53
2018-09-18T17:46:08.978Z,8.20
2018-09-18T17:48:37.499Z,8.50
2018-09-18T17:51:07.125Z,8.27
2018-09-18T17:53:35.844Z,8.00
2018-09-18T17:56:04.566Z,8.33
2018-09-18T17:58:33.172Z,8.53
2018-09-18T18:01:01.722Z,9.13
2018-09-18T18:03:30.247Z,9.13
2018-09-18T18:05:59.845Z,8.70
2018-09-18T18:08:28.656Z,8.40
2018-09-18T18:10:57.314Z,8.70
2018-09-18T18:13:26.059Z,8.97
2018-09-18T18:15:54.657Z,8.13
2018-09-18T18:18:23.228Z,8.60
2018-09-18T18:20:51.861Z,8.43
2018-09-18T18:23:20.436Z,9.23
2018-09-18T18:25:49.042Z,9.40
2018-09-18T18:28:17.677Z,9.53
2018-09-18T18:30:46.250Z,9.60
2018-09-18T18:33:14.910Z,9.50
2018-09-18T18:35:43.546Z,8.93
2018-09-18T18:38:12.197Z,9.13
2018-09-18T18:40:40.866Z,8.97
2018-09-18T18:43:09.454Z,9.03
2018-09-18T18:45:38.987Z,9.17
2018-09-18T18:48:09.616Z,9.40
2018-09-18T18:50:39.780Z,8.87
2018-09-18T18:53:08.604Z,8.70
2018-09-18T18:55:37.415Z,8.37
2018-09-18T18:58:06.150Z,8.43
2018-09-18T19:00:35.637Z,8.83
2018-09-18T19:03:05.887Z,8.90
2018-09-18T19:05:36.136Z,8.80
2018-09-18T19:08:05.562Z,9.37
2018-09-18T19:10:34.448Z,8.57
2018-09-18T19:13:03.962Z,8.77
2018-09-18T19:15:32.872Z,8.00
2018-09-18T19:18:02.531Z,8.60
2018-09-18T19:20:31.535Z,9.00
2018-09-18T19:23:01.814Z,8.20
2018-09-18T19:25:30.747Z,8.70
2018-09-18T19:28:01.157Z,8.33
2018-09-18T19:30:30.445Z,8.23
2018-09-18T19:33:00.376Z,8.17
2018-09-18T19:35:29.128Z,8.80
2018-09-18T19:38:00.532Z,9.30
2018-09-18T19:40:29.917Z,7.87
2018-09-18T19:42:58.918Z,8.67
2018-09-18T19:45:27.833Z,8.20
2018-09-18T19:47:56.997Z,8.77
2018-09-18T19:50:26.046Z,8.70
2018-09-18T19:52:57.504Z,8.13
2018-09-18T19:55:26.634Z,8.40
2018-09-18T19:57:55.455Z,8.73
2018-09-18T20:00:24.275Z,8.40
2018-09-18T20:02:52.833Z,8.67
2018-09-18T20:05:21.411Z,8.93
2018-09-18T20:07:49.882Z,8.37
2018-09-18T20:10:18.427Z,8.60
2018-09-18T20:12:46.990Z,8.43
2018-09-18T20:15:15.482Z,8.17
2018-09-18T20:17:44.015Z,8.50
2018-09-18T20:20:12.534Z,8.40
2018-09-18T20:22:41.043Z,8.00
2018-09-18T20:25:09.531Z,7.43
2018-09-18T20:27:38.095Z,8.00
2018-09-18T20:30:06.945Z,7.43
2018-09-18T20:32:35.480Z,8.13
2018-09-18T20:35:04.003Z,7.60
2018-09-18T20:37:32.586Z,7.37
2018-09-18T20:40:01.158Z,7.67
2018-09-18T20:42:29.718Z,7.80
2018-09-18T20:44:58.279Z,7.70
2018-09-18T20:47:26.839Z,7.70
2018-09-18T20:49:55.355Z,7.90
2018-09-18T20:52:23.917Z,7.10
2018-09-18T20:54:52.468Z,7.40
2018-09-18T20:57:20.996Z,8.30
2018-09-18T20:59:49.532Z,7.93
2018-09-18T21:02:18.024Z,7.87
2018-09-18T21:04:46.569Z,7.13
2018-09-18T21:07:15.132Z,7.07
2018-09-18T21:09:43.624Z,7.60
2018-09-18T21:12:12.142Z,7.70
2018-09-18T21:14:40.660Z,7.53
2018-09-18T21:17:09.177Z,7.50
2018-09-18T21:19:37.701Z,7.60
2018-09-18T21:22:06.282Z,7.93
2018-09-18T21:24:34.831Z,7.50
2018-09-18T21:27:03.351Z,7.50
2018-09-18T21:29:31.886Z,6.97
2018-09-18T21:32:00.427Z,7.57
2018-09-18T21:34:28.940Z,6.90
2018-09-18T21:36:57.433Z,6.60
2018-09-18T21:39:25.995Z,6.70
2018-09-18T21:41:54.479Z,6.80
2018-09-18T21:44:23.005Z,6.93
2018-09-18T21:46:51.535Z,7.27
2018-09-18T21:49:20.070Z,6.97
2018-09-18T21:51:48.608Z,7.10
2018-09-18T21:54:17.097Z,6.97
2018-09-18T21:56:45.635Z,6.73
2018-09-18T21:59:14.180Z,6.97
2018-09-18T22:01:42.705Z,6.90
2018-09-18T22:04:11.203Z,6.17
2018-09-18T22:06:39.772Z,6.70
2018-09-18T22:09:08.332Z,7.40
2018-09-18T22:11:36.911Z,6.77
2018-09-18T22:14:05.445Z,6.87
2018-09-18T22:16:33.955Z,7.00
2018-09-18T22:19:02.486Z,6.37
2018-09-18T22:21:31.006Z,6.30
2018-09-18T22:23:59.534Z,6.33
2018-09-18T22:26:28.062Z,6.70
2018-09-18T22:28:56.593Z,6.20
2018-09-18T22:31:25.104Z,6.33
2018-09-18T22:33:53.674Z,6.23
2018-09-18T22:36:22.155Z,6.13
2018-09-18T22:38:50.737Z,6.37
2018-09-18T22:41:19.256Z,6.10
2018-09-18T22:43:47.768Z,5.87
2018-09-18T22:46:16.320Z,6.37
2018-09-18T22:48:44.848Z,5.87
2018-09-18T22:51:13.402Z,6.13
2018-09-18T22:53:43.045Z,4.80
2018-09-18T22:56:11.617Z,5.90
2018-09-18T22:58:40.183Z,6.13
2018-09-18T23:01:08.698Z,6.40
2018-09-18T23:03:37.270Z,6.30
2018-09-18T23:06:05.794Z,5.67
2018-09-18T23:08:34.294Z,5.63
2018-09-18T23:11:02.817Z,5.70
2018-09-18T23:13:31.309Z,5.20
2018-09-18T23:15:59.831Z,5.23
2018-09-18T23:18:28.360Z,5.30
2018-09-18T23:20:56.896Z,5.77
2018-09-18T23:23:25.414Z,5.50
2018-09-18T23:25:53.885Z,5.60
2018-09-18T23:28:22.407Z,5.43
2018-09-18T23:30:50.923Z,5.27
2018-09-18T23:33:19.457Z,5.20
2018-09-18T23:35:48.012Z,4.97
2018-09-18T23:38:16.545Z,5.30
2018-09-18T23:40:51.863Z,5.13
2018-09-18T23:43:20.418Z,5.30
2018-09-18T23:45:48.957Z,5.53
2018-09-18T23:48:17.458Z,4.80
2018-09-18T23:50:45.997Z,5.37
2018-09-18T23:53:14.502Z,4.87
2018-09-18T23:55:43.070Z,4.97
2018-09-18T23:58:11.578Z,5.37
